Time;durP1;ratioP1;P1;durP2;ratioP2;P2;SDS_P1;SDS_P2;PMS_P1;PMS_P2;Temp;Humidity;BMP_temperature;BMP_pressure;BME280_temperature;BME280_humidity;BME280_pressure;Samples;Min_cycle;Max_cycle;Signal;HPM_P1;HPM_P2
2021/11/14 00:02:02;;;;;;;12.52;4.28;;;;;;;16.37;59.11;101171.25;4862080;29;20508;-91
2021/11/14 00:04:28;;;;;;;4.75;3.28;;;;;;;16.40;58.99;101169.19;4860877;29;20113;-91
2021/11/14 00:06:53;;;;;;;4.95;3.05;;;;;;;16.37;58.91;101163.31;4860863;29;20073;-91
2021/11/14 00:09:19;;;;;;;5.20;3.90;;;;;;;16.37;59.12;101163.31;4861644;29;20026;-91
2021/11/14 00:11:45;;;;;;;4.32;3.10;;;;;;;16.35;59.02;101165.25;4861749;29;20030;-91
2021/11/14 00:14:11;;;;;;;5.95;3.10;;;;;;;16.28;59.44;101158.75;4861551;29;20032;-92
2021/11/14 00:16:36;;;;;;;5.95;2.88;;;;;;;16.19;58.75;101158.53;4861548;29;20034;-91
2021/11/14 00:19:03;;;;;;;6.32;2.85;;;;;;;16.19;58.99;101153.25;4861582;29;20033;-90
2021/11/14 00:21:30;;;;;;;4.65;3.42;;;;;;;16.05;59.09;101154.34;4860895;29;20026;-91
2021/11/14 00:23:56;;;;;;;6.28;2.70;;;;;;;15.85;58.77;101155.88;4860629;29;20128;-92
2021/11/14 00:26:22;;;;;;;4.50;2.47;;;;;;;15.70;57.89;101165.00;4861278;29;20515;-91
2021/11/14 00:28:48;;;;;;;4.05;2.00;;;;;;;15.71;57.92;101153.44;4861158;29;20081;-91
2021/11/14 00:31:17;;;;;;;4.22;2.40;;;;;;;15.71;58.52;101163.19;4860139;29;20034;-91
2021/11/14 00:33:43;;;;;;;3.72;2.60;;;;;;;15.71;58.94;101160.56;4861337;29;20037;-91
2021/11/14 00:36:16;;;;;;;5.75;2.53;;;;;;;15.65;58.68;101162.69;4861381;29;20644;-91
2021/11/14 00:38:41;;;;;;;5.15;2.40;;;;;;;15.55;58.55;101163.53;4861046;29;20029;-91
2021/11/14 00:41:07;;;;;;;5.63;2.70;;;;;;;15.60;59.31;101170.16;4861146;29;20030;-92
2021/11/14 00:43:34;;;;;;;4.38;2.58;;;;;;;15.63;58.84;101166.44;4861162;29;20169;-92
2021/11/14 00:45:59;;;;;;;4.63;2.20;;;;;;;15.62;59.38;101162.94;4861029;29;20040;-91
2021/11/14 00:48:25;;;;;;;6.32;3.00;;;;;;;15.61;59.70;101160.41;4861313;29;20388;-91
2021/11/14 00:50:50;;;;;;;5.20;2.72;;;;;;;15.63;59.29;101161.97;4860976;29;20479;-91
2021/11/14 00:53:20;;;;;;;3.78;1.75;;;;;;;15.61;60.25;101160.41;4860850;29;20044;-91
2021/11/14 00:55:46;;;;;;;3.28;1.85;;;;;;;15.57;59.95;101169.56;4860587;29;20046;-91
2021/11/14 00:58:12;;;;;;;3.25;1.77;;;;;;;15.44;58.61;101170.50;4860923;29;20025;-91
2021/11/14 01:00:38;;;;;;;6.13;1.88;;;;;;;15.44;59.17;101181.09;4860970;29;20501;-90
2021/11/14 01:03:06;;;;;;;3.72;1.85;;;;;;;15.47;59.64;101170.25;4860793;29;20461;-91
2021/11/14 01:05:34;;;;;;;4.85;2.30;;;;;;;15.49;59.48;101167.50;4860264;29;20135;-91
2021/11/14 01:07:59;;;;;;;3.22;1.92;;;;;;;15.46;59.07;101173.00;4860813;29;20477;-91
2021/11/14 01:10:32;;;;;;;6.65;1.98;;;;;;;15.48;59.74;101171.09;4861016;29;20039;-91
2021/11/14 01:12:58;;;;;;;5.15;2.10;;;;;;;15.41;59.49;101181.31;4860627;29;20085;-91
2021/11/14 01:15:24;;;;;;;4.75;2.45;;;;;;;15.43;59.83;101163.50;4860670;29;20029;-91
2021/11/14 01:17:50;;;;;;;11.93;2.30;;;;;;;15.32;59.67;101174.06;4860489;29;20029;-91
2021/11/14 01:20:20;;;;;;;3.55;1.83;;;;;;;15.44;59.47;101178.44;4859351;29;20097;-91
2021/11/14 01:22:46;;;;;;;3.47;2.05;;;;;;;15.41;59.69;101178.66;4860495;29;20089;-91
2021/11/14 01:25:14;;;;;;;5.03;1.70;;;;;;;15.42;59.52;101185.66;4860547;29;20033;-91
2021/11/14 01:27:40;;;;;;;4.75;2.15;;;;;;;15.33;59.90;101185.50;4860230;29;20072;-91
2021/11/14 01:30:11;;;;;;;6.78;2.38;;;;;;;15.20;60.53;101185.56;4860414;29;20404;-92
2021/11/14 01:32:37;;;;;;;4.75;1.77;;;;;;;15.22;60.19;101191.59;4860171;29;20029;-91
2021/11/14 01:35:03;;;;;;;2.90;1.70;;;;;;;15.23;60.69;101188.00;4859971;29;20033;-91
2021/11/14 01:37:28;;;;;;;5.60;1.70;;;;;;;15.16;61.06;101190.25;4860335;29;20034;-91
2021/11/14 01:39:54;;;;;;;3.13;1.75;;;;;;;15.15;60.88;101193.88;4860195;29;20038;-91
2021/11/14 01:42:19;;;;;;;6.25;1.88;;;;;;;15.18;60.82;101196.25;4859886;29;20022;-92
2021/11/14 01:44:44;;;;;;;2.63;1.60;;;;;;;15.14;61.01;101196.63;4859802;29;20029;-92
2021/11/14 01:47:10;;;;;;;4.15;1.90;;;;;;;15.19;61.36;101190.03;4860291;29;20037;-91
2021/11/14 01:49:35;;;;;;;1.95;1.52;;;;;;;15.16;61.25;101197.34;4860026;29;20026;-91
2021/11/14 01:52:01;;;;;;;4.18;2.15;;;;;;;15.15;61.03;101196.50;4860081;29;20064;-91
2021/11/14 01:54:27;;;;;;;3.88;1.98;;;;;;;15.16;61.21;101197.34;4859974;29;20037;-92
2021/11/14 01:56:52;;;;;;;3.47;1.55;;;;;;;15.11;61.25;101194.22;4859976;29;20037;-91
2021/11/14 01:59:18;;;;;;;3.72;2.05;;;;;;;14.94;61.37;101201.59;4859612;29;20540;-92
2021/11/14 02:01:44;;;;;;;3.63;1.50;;;;;;;15.08;61.29;101200.56;4859750;29;20029;-92
2021/11/14 02:04:09;;;;;;;3.83;1.70;;;;;;;14.99;61.43;101194.16;4859904;29;20048;-91
2021/11/14 02:06:38;;;;;;;8.10;1.95;;;;;;;15.02;61.61;101207.13;4859756;29;20033;-91
2021/11/14 02:09:07;;;;;;;4.68;1.77;;;;;;;15.13;61.07;101202.88;4859914;29;20028;-92
2021/11/14 02:11:33;;;;;;;4.80;1.70;;;;;;;15.04;61.83;101193.81;4859962;29;20552;-91
2021/11/14 02:13:58;;;;;;;5.70;1.23;;;;;;;15.04;61.70;101204.38;4859812;29;20037;-91
2021/11/14 02:16:26;;;;;;;3.05;1.70;;;;;;;14.92;61.57;101206.13;4859347;29;20102;-91
2021/11/14 02:18:53;;;;;;;5.55;1.70;;;;;;;14.85;61.46;101210.22;4859660;29;20561;-91
2021/11/14 02:21:20;;;;;;;3.58;1.50;;;;;;;14.86;61.66;101206.59;4859689;29;20040;-91
2021/11/14 02:23:47;;;;;;;5.22;1.80;;;;;;;14.84;62.06;101208.50;4859585;29;20229;-92
2021/11/14 02:26:12;;;;;;;4.57;1.80;;;;;;;14.85;62.36;101205.75;4859577;29;20065;-90
2021/11/14 02:28:38;;;;;;;3.97;1.73;;;;;;;14.83;62.61;101205.03;4859505;29;20098;-91
2021/11/14 02:31:04;;;;;;;5.72;1.73;;;;;;;14.83;62.45;101212.09;4863398;29;20038;-92
2021/11/14 02:33:30;;;;;;;2.65;1.40;;;;;;;14.74;62.66;101208.34;4865863;29;20483;-92
2021/11/14 02:36:04;;;;;;;5.22;1.92;;;;;;;14.67;63.04;101205.31;4865688;29;20482;-92
2021/11/14 02:38:30;;;;;;;3.13;1.55;;;;;;;14.75;62.70;101206.53;4865701;29;20453;-91
2021/11/14 02:40:56;;;;;;;6.13;1.85;;;;;;;14.67;63.08;101213.22;4865694;29;20077;-91
2021/11/14 02:43:21;;;;;;;4.28;2.13;;;;;;;14.73;63.34;101211.94;4865680;29;20077;-91
2021/11/14 02:45:47;;;;;;;6.72;2.60;;;;;;;14.71;63.29;101207.72;4865132;29;20037;-90
2021/11/14 02:48:14;;;;;;;4.25;2.10;;;;;;;14.65;62.92;101209.84;4865736;29;20167;-91
2021/11/14 02:50:42;;;;;;;4.93;2.03;;;;;;;14.51;63.52;101207.31;4865430;29;20026;-91
2021/11/14 02:53:09;;;;;;;3.63;1.73;;;;;;;14.65;63.48;101212.50;4865839;29;20425;-91
2021/11/14 02:55:36;;;;;;;8.18;2.50;;;;;;;14.60;63.61;101211.97;4865677;29;20037;-91
2021/11/14 02:58:02;;;;;;;6.40;2.33;;;;;;;14.68;63.67;101209.63;4865582;29;20034;-92
2021/11/14 03:00:32;;;;;;;3.17;1.98;;;;;;;14.72;63.05;101204.13;4865199;29;20033;-92
2021/11/14 03:02:59;;;;;;;6.60;3.50;;;;;;;14.67;63.35;101202.66;4865372;29;20017;-92
2021/11/14 03:05:25;;;;;;;5.43;2.72;;;;;;;14.67;63.20;101205.31;4865358;29;20061;-92
2021/11/14 03:07:51;;;;;;;7.28;2.08;;;;;;;14.65;62.92;101212.50;4865493;29;20045;-92
2021/11/14 03:10:22;;;;;;;5.40;2.28;;;;;;;14.66;63.31;101208.03;4865347;29;20064;-92
2021/11/14 03:12:58;;;;;;;5.45;2.40;;;;;;;14.66;63.61;101205.41;4865291;29;20089;-92
2021/11/14 03:15:25;;;;;;;6.85;2.33;;;;;;;14.57;63.56;101216.63;4865235;29;20029;-91
2021/11/14 03:17:51;;;;;;;5.47;3.35;;;;;;;14.41;64.09;101211.56;4865385;29;20392;-92
2021/11/14 03:20:17;;;;;;;7.43;2.78;;;;;;;14.40;63.57;101205.44;4863998;29;20040;-92
2021/11/14 03:22:42;;;;;;;3.40;2.20;;;;;;;14.57;63.36;101209.53;4865048;29;20089;-92
2021/11/14 03:25:08;;;;;;;4.88;2.17;;;;;;;14.48;63.83;101210.19;4865261;29;20037;-92
2021/11/14 03:27:34;;;;;;;4.78;2.15;;;;;;;14.47;63.60;101204.06;4865282;29;20035;-91
2021/11/14 03:29:59;;;;;;;3.53;1.95;;;;;;;14.44;63.34;101204.28;4865015;29;20049;-91
2021/11/14 03:32:25;;;;;;;3.47;2.10;;;;;;;14.46;63.58;101214.75;4865186;29;20026;-92
2021/11/14 03:34:50;;;;;;;4.95;2.20;;;;;;;14.41;63.85;101207.13;4865230;29;20384;-92
2021/11/14 03:37:19;;;;;;;4.80;2.50;;;;;;;14.37;63.71;101215.38;4865084;29;20382;-92
2021/11/14 03:39:45;;;;;;;6.28;2.20;;;;;;;14.36;63.61;101211.06;4864678;29;20121;-91
2021/11/14 03:42:11;;;;;;;2.35;2.03;;;;;;;14.29;63.56;101216.75;4862464;29;20026;-91
2021/11/14 03:44:36;;;;;;;7.15;2.63;;;;;;;14.21;63.62;101212.97;4860230;29;20029;-91
2021/11/14 03:47:03;;;;;;;4.03;2.30;;;;;;;14.19;64.05;101218.38;4861906;29;20192;-92
2021/11/14 03:49:28;;;;;;;7.90;3.13;;;;;;;14.03;64.64;101217.75;4860927;29;20038;-91
2021/11/14 03:51:55;;;;;;;5.93;2.75;;;;;;;14.09;64.22;101218.16;4862126;29;20481;-91
2021/11/14 03:54:21;;;;;;;6.93;3.53;;;;;;;14.13;63.99;101212.69;4862351;29;20037;-91
2021/11/14 03:56:47;;;;;;;4.63;2.33;;;;;;;14.11;63.96;101220.72;4861460;29;20484;-92
2021/11/14 03:59:12;;;;;;;6.18;3.00;;;;;;;13.99;64.31;101224.22;4861969;29;20064;-91
2021/11/14 04:01:37;;;;;;;5.30;3.53;;;;;;;13.99;64.60;101224.22;4862100;29;20060;-92
2021/11/14 04:04:03;;;;;;;8.15;3.58;;;;;;;13.94;64.48;101224.53;4862213;29;20037;-92
2021/11/14 04:06:28;;;;;;;4.28;2.42;;;;;;;13.85;64.23;101220.72;4861615;29;20053;-92
2021/11/14 04:08:56;;;;;;;5.05;3.20;;;;;;;13.85;64.26;101227.81;4861683;29;20074;-92
2021/11/14 04:11:22;;;;;;;5.90;2.90;;;;;;;13.82;64.77;101230.63;4861795;29;20085;-91
2021/11/14 04:13:47;;;;;;;5.90;3.00;;;;;;;13.78;64.50;101232.63;4861654;29;20429;-91
2021/11/14 04:16:13;;;;;;;8.98;3.38;;;;;;;13.74;64.75;101227.69;4861681;29;20045;-91
2021/11/14 04:18:38;;;;;;;4.93;3.20;;;;;;;13.73;65.17;101237.41;4861682;29;20029;-91
2021/11/14 04:21:06;;;;;;;7.72;3.00;;;;;;;13.71;64.73;101235.81;4861491;29;20033;-91
2021/11/14 04:23:31;;;;;;;4.97;3.33;;;;;;;13.64;64.84;101238.84;4860905;29;20487;-92
2021/11/14 04:25:57;;;;;;;8.10;3.17;;;;;;;13.62;64.93;101230.19;4842927;29;20026;-91
2021/11/14 04:28:22;;;;;;;5.32;3.38;;;;;;;13.60;65.18;101239.16;4842854;29;20038;-92
2021/11/14 04:30:50;;;;;;;6.50;3.05;;;;;;;13.56;65.06;101233.25;4843071;29;20030;-92
2021/11/14 04:33:17;;;;;;;7.18;3.30;;;;;;;13.53;65.18;101237.91;4842958;29;20042;-92
2021/11/14 04:35:43;;;;;;;7.85;3.03;;;;;;;13.52;65.37;101244.13;4842903;29;20034;-91
2021/11/14 04:38:08;;;;;;;7.35;3.13;;;;;;;13.49;65.33;101242.53;4842923;29;20041;-91
2021/11/14 04:40:37;;;;;;;5.95;2.45;;;;;;;13.51;65.37;101231.88;4857431;29;20030;-91
2021/11/14 04:43:04;;;;;;;7.35;3.72;;;;;;;13.48;65.61;101236.41;4860985;29;20108;-91
2021/11/14 04:45:30;;;;;;;4.88;3.20;;;;;;;13.45;65.68;101236.63;4861141;29;20026;-91
2021/11/14 04:47:55;;;;;;;5.63;2.88;;;;;;;13.44;64.89;101228.81;4861163;29;20025;-91
2021/11/14 04:50:23;;;;;;;8.57;3.22;;;;;;;13.40;65.09;101240.50;4861096;29;20029;-91
2021/11/14 04:52:50;;;;;;;3.70;2.13;;;;;;;13.43;65.61;101241.16;4860274;29;20034;-91
2021/11/14 04:55:15;;;;;;;4.82;2.58;;;;;;;13.45;65.56;101239.25;4860998;29;20030;-91
2021/11/14 04:57:40;;;;;;;7.38;2.97;;;;;;;13.39;64.76;101244.94;4861084;29;20044;-91
2021/11/14 05:00:10;;;;;;;5.35;2.80;;;;;;;13.33;64.75;101242.72;4860972;29;20030;-91
2021/11/14 05:02:36;;;;;;;3.92;2.30;;;;;;;13.32;65.00;101248.94;4860592;29;20316;-90
2021/11/14 05:05:02;;;;;;;5.68;1.92;;;;;;;13.31;65.02;101241.97;4860692;29;20254;-91
2021/11/14 05:07:28;;;;;;;6.70;2.55;;;;;;;13.30;64.92;101248.19;4860720;29;20029;-91
2021/11/14 05:09:54;;;;;;;5.18;2.22;;;;;;;13.34;64.93;101251.47;4860763;29;20511;-91
2021/11/14 05:12:19;;;;;;;7.38;2.25;;;;;;;13.29;65.09;101260.53;4860606;29;20034;-91
2021/11/14 05:14:44;;;;;;;4.18;2.08;;;;;;;13.28;65.03;101253.53;4860628;29;20028;-91
2021/11/14 05:17:10;;;;;;;6.70;2.15;;;;;;;13.32;65.38;101248.94;4860176;29;20038;-92
2021/11/14 05:19:35;;;;;;;8.18;1.77;;;;;;;13.34;65.12;101251.47;4860392;29;20037;-91
2021/11/14 05:22:00;;;;;;;3.70;2.50;;;;;;;13.33;64.76;101247.13;4860612;29;20036;-92
2021/11/14 05:24:26;;;;;;;4.30;2.10;;;;;;;13.32;64.76;101251.56;4860323;29;20040;-91
2021/11/14 05:26:53;;;;;;;3.50;1.98;;;;;;;13.33;64.97;101249.75;4860647;29;20037;-92
2021/11/14 05:29:19;;;;;;;6.57;2.30;;;;;;;13.34;65.14;101249.66;4860331;29;20073;-91
2021/11/14 05:31:44;;;;;;;4.30;1.77;;;;;;;13.37;65.03;101253.88;4860230;29;20037;-91
2021/11/14 05:34:10;;;;;;;3.47;1.95;;;;;;;13.39;65.37;101250.22;4860780;29;20036;-91
2021/11/14 05:36:35;;;;;;;5.35;2.55;;;;;;;13.29;65.27;101254.38;4859348;29;20036;-92
2021/11/14 05:39:02;;;;;;;6.32;2.97;;;;;;;13.31;65.77;101251.66;4860173;29;20030;-92
2021/11/14 05:41:27;;;;;;;6.50;2.78;;;;;;;13.30;65.54;101261.38;4860153;29;20068;-92
2021/11/14 05:43:52;;;;;;;7.78;2.53;;;;;;;13.28;65.38;101257.97;4860092;29;20057;-91
2021/11/14 05:46:18;;;;;;;5.20;2.85;;;;;;;13.27;65.35;101261.56;4860071;29;20384;-91
2021/11/14 05:48:43;;;;;;;6.57;2.47;;;;;;;13.31;65.69;101249.03;4860035;29;20112;-91
2021/11/14 05:51:08;;;;;;;5.57;2.40;;;;;;;13.35;65.65;101259.28;4860114;29;20033;-91
2021/11/14 05:53:34;;;;;;;4.45;2.13;;;;;;;13.42;65.47;101265.84;4859645;29;20429;-91
2021/11/14 05:55:59;;;;;;;7.03;2.50;;;;;;;13.47;65.69;101269.03;4860096;29;20064;-91
2021/11/14 05:58:35;;;;;;;4.70;2.47;;;;;;;13.52;65.56;101270.50;4860025;29;20433;-92
2021/11/14 06:01:15;;;;;;;5.57;1.88;;;;;;;13.55;65.60;101273.78;4859996;29;20041;-91
2021/11/14 06:03:53;;;;;;;5.72;2.40;;;;;;;13.55;65.11;101278.22;4859855;29;20034;-92
2021/11/14 06:06:18;;;;;;;4.93;2.05;;;;;;;13.51;65.46;101272.31;4858914;29;20045;-92
2021/11/14 06:08:44;;;;;;;6.80;2.40;;;;;;;13.55;65.52;101279.06;4859956;29;20033;-92
2021/11/14 06:11:09;;;;;;;5.95;2.13;;;;;;;13.59;65.60;101283.19;4859877;29;20474;-91
2021/11/14 06:13:35;;;;;;;3.38;1.98;;;;;;;13.64;65.01;101282.88;4859792;29;20061;-91
2021/11/14 06:16:01;;;;;;;5.68;2.17;;;;;;;13.53;64.19;101286.25;4859664;29;20033;-91
2021/11/14 06:18:26;;;;;;;4.40;1.92;;;;;;;13.60;65.03;101284.88;4859624;29;20172;-91
2021/11/14 06:20:52;;;;;;;3.90;1.58;;;;;;;13.63;65.00;101289.13;4859421;29;20033;-91
2021/11/14 06:23:17;;;;;;;5.30;2.50;;;;;;;13.60;64.95;101290.16;4859718;29;20033;-91
2021/11/14 06:25:43;;;;;;;4.13;2.40;;;;;;;13.59;65.07;101292.91;4859557;29;20029;-92
2021/11/14 06:28:09;;;;;;;4.75;2.30;;;;;;;13.56;65.15;101299.22;4860051;29;20040;-91
2021/11/14 06:30:35;;;;;;;5.45;2.25;;;;;;;13.65;64.89;101297.78;4859443;29;20036;-92
2021/11/14 06:33:01;;;;;;;4.88;2.15;;;;;;;13.71;64.56;101305.28;4859638;29;20026;-92
2021/11/14 06:35:26;;;;;;;4.60;2.22;;;;;;;13.72;64.49;101304.31;4859302;29;20511;-91
2021/11/14 06:37:52;;;;;;;3.95;2.40;;;;;;;13.67;64.37;101307.28;4859397;29;20094;-91
2021/11/14 06:40:18;;;;;;;6.53;2.70;;;;;;;13.79;64.43;101305.59;4859676;29;20290;-91
2021/11/14 06:42:44;;;;;;;4.68;2.30;;;;;;;13.82;64.34;101299.25;4859254;29;20553;-91
2021/11/14 06:45:09;;;;;;;7.47;3.15;;;;;;;13.81;63.61;101297.59;4859190;29;20065;-91
2021/11/14 06:47:36;;;;;;;5.90;2.55;;;;;;;13.81;64.27;101302.88;4859187;29;20041;-91
2021/11/14 06:50:02;;;;;;;6.70;3.00;;;;;;;13.76;64.47;101303.16;4859440;29;20036;-91
2021/11/14 06:52:27;;;;;;;4.03;2.33;;;;;;;13.79;64.18;101302.97;4859297;29;20033;-91
2021/11/14 06:54:53;;;;;;;5.55;3.47;;;;;;;13.78;64.41;101303.91;4858113;29;20065;-91
2021/11/14 06:57:19;;;;;;;5.13;2.65;;;;;;;13.80;64.62;101306.44;4859412;29;20030;-92
2021/11/14 06:59:45;;;;;;;5.40;2.75;;;;;;;13.80;64.20;101312.59;4858407;29;20029;-91
2021/11/14 07:02:11;;;;;;;3.97;2.63;;;;;;;13.76;64.10;101313.72;4858065;29;20041;-91
2021/11/14 07:04:37;;;;;;;4.18;2.45;;;;;;;13.78;64.27;101314.47;4859314;29;20032;-91
2021/11/14 07:07:03;;;;;;;5.07;2.65;;;;;;;13.78;64.23;101314.47;4859405;29;20033;-91
2021/11/14 07:09:29;;;;;;;5.03;2.58;;;;;;;13.80;64.28;101328.44;4859702;29;20033;-91
2021/11/14 07:11:54;;;;;;;4.15;2.30;;;;;;;13.71;64.73;101328.19;4859153;29;20434;-91
2021/11/14 07:14:22;;;;;;;7.75;3.70;;;;;;;13.60;64.91;101339.44;4858988;29;20034;-91
2021/11/14 07:16:48;;;;;;;8.95;5.00;;;;;;;13.73;65.19;101340.34;4858165;29;20437;-91
2021/11/14 07:19:14;;;;;;;11.30;4.80;;;;;;;13.72;65.26;101340.44;4862662;29;20029;-92
2021/11/14 07:21:39;;;;;;;10.07;4.85;;;;;;;13.87;65.34;101340.25;4862692;29;20120;-91
2021/11/14 07:24:05;;;;;;;9.55;4.57;;;;;;;13.88;65.30;101344.59;4862588;29;20021;-92
2021/11/14 07:26:30;;;;;;;7.72;4.50;;;;;;;13.95;64.94;101347.66;4862481;29;20033;-92
2021/11/14 07:28:56;;;;;;;8.70;4.20;;;;;;;13.97;65.31;101356.31;4862425;29;20075;-91
2021/11/14 07:31:21;;;;;;;10.38;5.13;;;;;;;13.91;65.48;101361.19;4862306;29;20034;-91
2021/11/14 07:33:47;;;;;;;8.52;4.70;;;;;;;14.03;65.00;101360.34;4862372;29;20056;-92
2021/11/14 07:36:12;;;;;;;10.90;4.50;;;;;;;14.01;65.09;101362.25;4862326;29;20037;-91
2021/11/14 07:38:38;;;;;;;7.07;3.58;;;;;;;13.96;65.04;101369.63;4862414;29;20029;-91
2021/11/14 07:41:03;;;;;;;7.43;4.30;;;;;;;13.90;65.49;101360.31;4862255;29;20029;-92
2021/11/14 07:43:28;;;;;;;6.50;3.92;;;;;;;13.88;65.81;101368.34;4862172;29;20473;-92
2021/11/14 07:45:54;;;;;;;7.78;3.75;;;;;;;14.09;65.27;101376.63;4861944;29;20040;-91
2021/11/14 07:48:20;;;;;;;9.13;4.40;;;;;;;14.13;65.18;101371.97;4862208;29;20112;-91
2021/11/14 07:50:45;;;;;;;9.93;5.05;;;;;;;14.13;64.75;101366.69;4862104;29;20384;-92
2021/11/14 07:53:11;;;;;;;7.07;4.13;;;;;;;14.16;65.23;101369.16;4861927;29;20029;-92
2021/11/14 07:55:37;;;;;;;9.18;4.53;;;;;;;13.94;64.95;101376.78;4861804;29;20036;-91
2021/11/14 07:58:05;;;;;;;8.95;4.05;;;;;;;14.13;65.28;101377.25;4861974;29;20034;-91
2021/11/14 08:00:31;;;;;;;9.93;4.57;;;;;;;14.32;64.44;101374.22;4862380;29;20029;-91
2021/11/14 08:02:57;;;;;;;10.10;4.22;;;;;;;14.38;64.02;101372.97;4861723;29;20432;-91
2021/11/14 08:05:22;;;;;;;11.82;4.93;;;;;;;14.42;63.81;101383.22;4861973;29;20029;-91
2021/11/14 08:07:49;;;;;;;11.48;4.13;;;;;;;14.38;63.56;101383.53;4861385;29;20116;-91
2021/11/14 08:10:18;;;;;;;9.93;3.95;;;;;;;14.51;63.81;101381.72;4861555;29;20029;-91
2021/11/14 08:12:44;;;;;;;6.93;3.92;;;;;;;14.52;63.34;101378.13;4861378;29;20034;-91
2021/11/14 08:15:10;;;;;;;7.38;4.65;;;;;;;14.45;63.51;101384.78;4861348;29;20029;-91
2021/11/14 08:17:36;;;;;;;11.60;4.35;;;;;;;14.53;63.57;101385.09;4861589;29;20025;-92
2021/11/14 08:20:05;;;;;;;7.47;3.63;;;;;;;14.63;63.49;101395.91;4861572;29;20049;-92
2021/11/14 08:22:31;;;;;;;7.20;4.05;;;;;;;14.75;63.28;101394.22;4861581;29;20101;-91
2021/11/14 08:24:58;;;;;;;7.70;4.75;;;;;;;14.82;63.33;101396.31;4861261;29;20121;-92
2021/11/14 08:27:24;;;;;;;6.70;4.03;;;;;;;14.86;62.51;101405.72;4860991;29;20052;-92
2021/11/14 08:29:50;;;;;;;8.48;4.50;;;;;;;14.83;62.57;101410.38;4866443;29;20029;-92
2021/11/14 08:32:17;;;;;;;6.65;3.83;;;;;;;14.76;62.29;101411.78;4874239;29;20033;-93
2021/11/14 08:34:43;;;;;;;10.40;4.28;;;;;;;14.77;62.15;101408.16;4861174;29;20113;-92
2021/11/14 08:37:10;;;;;;;7.03;4.47;;;;;;;14.85;62.71;101411.16;4861235;29;20029;-93
2021/11/14 08:39:35;;;;;;;8.57;4.60;;;;;;;14.72;62.52;101411.16;4864796;29;20064;-92
2021/11/14 08:42:02;;;;;;;7.22;4.28;;;;;;;14.70;62.89;101412.22;4861441;29;20068;-95
2021/11/14 08:44:28;;;;;;;8.88;4.95;;;;;;;14.61;63.14;101418.97;4870831;29;20029;-96
2021/11/14 08:46:55;;;;;;;6.65;4.22;;;;;;;14.56;63.23;101424.56;4861677;29;20033;-95
2021/11/14 08:49:20;;;;;;;6.72;4.68;;;;;;;14.56;63.22;101423.72;4862311;29;20039;-96
2021/11/14 08:51:46;;;;;;;8.88;5.00;;;;;;;14.61;63.36;101424.25;4870363;29;20111;-95
2021/11/14 08:54:12;;;;;;;8.50;4.90;;;;;;;14.58;62.76;101425.31;4871761;29;20136;-96
2021/11/14 08:56:39;;;;;;;6.78;4.60;;;;;;;14.64;63.13;101421.41;4880088;29;20531;-94
2021/11/14 08:59:05;;;;;;;7.03;4.05;;;;;;;14.68;63.27;101414.97;4876555;29;20025;-95
2021/11/14 09:01:31;;;;;;;7.13;3.88;;;;;;;14.79;62.85;101406.25;4876037;29;20033;-96
2021/11/14 09:03:57;;;;;;;6.88;4.22;;;;;;;14.85;62.94;101416.44;4868148;29;20033;-96
2021/11/14 09:06:22;;;;;;;8.88;3.90;;;;;;;14.97;62.65;101420.00;4861353;29;20514;-96
2021/11/14 09:08:48;;;;;;;6.88;4.50;;;;;;;15.19;62.17;101419.34;4860791;29;20061;-96
2021/11/14 09:11:15;;;;;;;8.20;4.18;;;;;;;15.30;62.26;101408.81;4863292;29;20101;-95
2021/11/14 09:13:40;;;;;;;7.78;4.55;;;;;;;15.29;61.50;101408.94;4863741;29;20445;-93
2021/11/14 09:16:06;;;;;;;9.65;4.80;;;;;;;15.25;61.45;101410.97;4869385;29;20041;-95
2021/11/14 09:18:32;;;;;;;10.18;4.32;;;;;;;15.41;61.56;101410.69;4874618;29;20080;-96
2021/11/14 09:20:57;;;;;;;7.35;4.20;;;;;;;15.39;61.33;101409.97;4864084;29;20113;-95
2021/11/14 09:23:23;;;;;;;9.30;5.03;;;;;;;15.57;61.08;101407.78;4872644;29;20041;-96
2021/11/14 09:25:49;;;;;;;8.23;4.18;;;;;;;15.63;60.83;101404.69;4863798;29;20559;-95
2021/11/14 09:28:16;;;;;;;9.43;3.88;;;;;;;15.58;60.81;101399.75;4863740;29;20040;-96
2021/11/14 09:30:44;;;;;;;8.43;4.00;;;;;;;15.52;60.51;101407.25;4868836;29;20373;-96
2021/11/14 09:33:11;;;;;;;8.57;3.63;;;;;;;15.58;60.14;101415.63;4872016;29;20032;-95
2021/11/14 09:35:37;;;;;;;5.55;3.50;;;;;;;15.72;60.55;101411.09;4861659;29;20030;-96
2021/11/14 09:38:04;;;;;;;8.95;4.65;;;;;;;15.75;60.54;101413.56;4861538;29;20032;-94
2021/11/14 09:40:29;;;;;;;10.82;4.30;;;;;;;15.70;60.54;101411.22;4870244;29;20025;-95
2021/11/14 09:42:57;;;;;;;16.15;5.32;;;;;;;15.73;60.31;101415.47;4875735;29;20032;-95
2021/11/14 09:45:29;;;;;;;11.25;5.05;;;;;;;15.90;59.75;101419.53;4870355;29;20088;-96
2021/11/14 09:47:55;;;;;;;9.35;4.80;;;;;;;16.28;59.46;101421.09;4867544;29;20063;-96
2021/11/14 09:50:21;;;;;;;11.48;4.90;;;;;;;16.95;59.44;101415.91;4861507;29;20026;-96
2021/11/14 09:52:46;;;;;;;8.68;4.53;;;;;;;17.92;57.65;101420.56;4860705;29;20040;-95
2021/11/14 09:55:12;;;;;;;13.27;4.78;;;;;;;19.07;54.91;101420.56;4871301;29;20060;-93
2021/11/14 09:57:39;;;;;;;11.52;4.43;;;;;;;20.20;52.73;101415.66;4868516;29;20029;-93
2021/11/14 10:00:08;;;;;;;8.95;3.88;;;;;;;21.16;49.48;101412.81;4858941;29;20054;-94
2021/11/14 10:02:35;;;;;;;5.95;4.00;;;;;;;22.20;47.55;101416.88;4859832;29;20029;-95
2021/11/14 10:05:01;;;;;;;8.10;3.47;;;;;;;22.13;45.60;101421.97;4861133;29;20420;-94
2021/11/14 10:07:26;;;;;;;11.13;3.40;;;;;;;22.15;46.71;101427.19;4876636;29;20033;-94
2021/11/14 10:09:53;;;;;;;6.57;3.40;;;;;;;21.54;46.15;101420.78;4863723;29;20484;-94
2021/11/14 10:12:27;;;;;;;5.10;2.53;;;;;;;21.15;46.72;101421.00;4860807;29;20088;-94
2021/11/14 10:15:17;;;;;;;6.85;3.42;;;;;;;20.83;47.68;101437.44;4859970;29;20162;-93
2021/11/14 10:17:48;;;;;;;5.65;3.42;;;;;;;19.91;49.28;101439.69;4862033;29;20388;-94
2021/11/14 10:20:22;;;;;;;7.07;2.95;;;;;;;19.77;49.83;101438.25;4862216;29;20503;-96
2021/11/14 10:22:57;;;;;;;6.15;3.50;;;;;;;19.61;50.05;101438.78;4861794;29;20037;-96
2021/11/14 10:25:23;;;;;;;6.00;3.38;;;;;;;19.63;50.46;101446.63;4860908;29;20093;-96
2021/11/14 10:27:52;;;;;;;9.23;3.47;;;;;;;19.28;50.52;101442.63;4861176;29;20036;-96
2021/11/14 10:30:24;;;;;;;7.07;3.25;;;;;;;19.16;52.02;101444.56;4868654;29;20489;-95
2021/11/14 10:32:51;;;;;;;5.72;2.90;;;;;;;19.12;51.90;101452.94;4864859;29;20030;-96
2021/11/14 10:35:17;;;;;;;6.43;2.70;;;;;;;19.36;52.11;101453.44;4862478;29;20029;-94
2021/11/14 10:37:43;;;;;;;5.13;2.35;;;;;;;19.29;52.10;101462.94;4863370;29;20116;-95
2021/11/14 10:40:21;;;;;;;4.43;2.28;;;;;;;19.22;52.30;101461.81;4861150;29;20040;-96
2021/11/14 10:42:50;;;;;;;3.95;2.60;;;;;;;19.30;52.24;101455.81;4867623;29;20494;-92
2021/11/14 10:45:17;;;;;;;4.05;2.70;;;;;;;19.26;51.88;101457.06;4858769;29;20037;-93
2021/11/14 10:47:43;;;;;;;3.15;2.33;;;;;;;19.18;51.77;101466.56;4860972;29;20042;-92
2021/11/14 10:50:13;;;;;;;6.63;3.35;;;;;;;19.12;52.54;101461.78;4860131;29;20038;-93
2021/11/14 10:52:54;;;;;;;4.78;2.30;;;;;;;19.16;52.23;101459.69;4866299;29;20033;-94
2021/11/14 10:55:20;;;;;;;6.00;2.95;;;;;;;18.99;52.47;101461.97;4868285;29;20044;-94
2021/11/14 10:57:45;;;;;;;3.67;2.20;;;;;;;18.92;52.91;101468.84;4868870;29;20048;-93
2021/11/14 11:00:12;;;;;;;5.85;2.47;;;;;;;18.86;53.29;101466.72;4873403;29;20034;-92
2021/11/14 11:02:46;;;;;;;7.25;2.53;;;;;;;18.79;53.99;101460.19;4873237;29;20033;-94
2021/11/14 11:05:20;;;;;;;6.65;2.85;;;;;;;18.78;53.51;101466.50;4865689;29;20029;-94
2021/11/14 11:08:04;;;;;;;5.55;2.72;;;;;;;18.90;53.71;101467.25;4869003;29;20037;-94
2021/11/14 11:10:33;;;;;;;4.25;2.60;;;;;;;18.88;53.69;101463.88;4872752;29;20492;-93
2021/11/14 11:13:00;;;;;;;5.80;2.95;;;;;;;18.70;53.89;101461.84;4863008;29;20029;-94
2021/11/14 11:15:26;;;;;;;5.38;2.67;;;;;;;18.73;54.32;101463.38;4876129;29;20190;-95
2021/11/14 11:17:54;;;;;;;5.60;3.25;;;;;;;18.69;54.41;101461.97;4870863;29;20033;-92
2021/11/14 11:20:23;;;;;;;5.35;2.97;;;;;;;18.69;54.27;101460.13;4869177;29;20508;-94
2021/11/14 11:22:53;;;;;;;6.22;3.10;;;;;;;18.79;54.33;101460.19;4861544;29;20104;-93